METAR Formatted Surface Weather Observation
Issued by NWS Charleston, WV

Home | Current Version | Previous Version | Text Only | Print | Product List | Glossary On
Versions: 1 2
000
SAUS41 KRLX 160403 COR
MTRCRW
METAR KCRW 160354Z COR 10003KT 7SM SCT045 BKN085 OVC180 17/17 A3006
RMK AO2 VCSH SLP173 T01670167



USA.gov is the U.S. government's official web portal to all federal, state and local government web resources and services.